sensor_id;sensor_type;location;lat;lon;timestamp;temperature;humidity
66610;DHT22;53468;48.276;14.416;2022-12-18T00:03:01;-2.20;99.90
66610;DHT22;53468;48.276;14.416;2022-12-18T00:08:33;-2.00;99.90
66610;DHT22;53468;48.276;14.416;2022-12-18T00:14:06;-1.90;99.90
66610;DHT22;53468;48.276;14.416;2022-12-18T00:19:38;-2.00;99.90
66610;DHT22;53468;48.276;14.416;2022-12-18T00:25:10;-2.00;99.90
66610;DHT22;53468;48.276;14.416;2022-12-18T00:30:44;-1.90;99.90
66610;DHT22;53468;48.276;14.416;2022-12-18T00:36:17;-2.10;99.90
66610;DHT22;53468;48.276;14.416;2022-12-18T00:41:49;-2.00;99.90
66610;DHT22;53468;48.276;14.416;2022-12-18T00:47:40;-2.30;99.90
66610;DHT22;53468;48.276;14.416;2022-12-18T00:53:12;-2.40;99.90
66610;DHT22;53468;48.276;14.416;2022-12-18T00:58:44;-2.50;99.90
66610;DHT22;53468;48.276;14.416;2022-12-18T01:04:18;-2.60;99.90
66610;DHT22;53468;48.276;14.416;2022-12-18T01:09:50;-2.70;99.90
66610;DHT22;53468;48.276;14.416;2022-12-18T01:15:22;-2.80;99.90
66610;DHT22;53468;48.276;14.416;2022-12-18T01:20:56;-3.00;99.90
66610;DHT22;53468;48.276;14.416;2022-12-18T01:26:28;-3.10;99.90
66610;DHT22;53468;48.276;14.416;2022-12-18T01:32:01;-3.20;99.90
66610;DHT22;53468;48.276;14.416;2022-12-18T01:37:35;-3.60;99.90
66610;DHT22;53468;48.276;14.416;2022-12-18T01:43:09;-3.60;99.90
66610;DHT22;53468;48.276;14.416;2022-12-18T01:48:41;-3.80;99.90
66610;DHT22;53468;48.276;14.416;2022-12-18T01:54:16;-4.20;99.90
66610;DHT22;53468;48.276;14.416;2022-12-18T01:59:51;-4.50;99.90
66610;DHT22;53468;48.276;14.416;2022-12-18T02:05:31;-5.00;99.90
66610;DHT22;53468;48.276;14.416;2022-12-18T02:11:10;-5.20;99.90
66610;DHT22;53468;48.276;14.416;2022-12-18T02:16:51;-5.30;99.90
66610;DHT22;53468;48.276;14.416;2022-12-18T02:22:29;-5.50;99.90
66610;DHT22;53468;48.276;14.416;2022-12-18T02:28:06;-5.80;99.90
66610;DHT22;53468;48.276;14.416;2022-12-18T02:33:42;-6.00;99.90
66610;DHT22;53468;48.276;14.416;2022-12-18T02:39:16;-6.20;99.90
66610;DHT22;53468;48.276;14.416;2022-12-18T02:44:51;-6.30;99.90
66610;DHT22;53468;48.276;14.416;2022-12-18T02:50:30;-6.30;99.90
66610;DHT22;53468;48.276;14.416;2022-12-18T02:56:09;-6.40;99.90
66610;DHT22;53468;48.276;14.416;2022-12-18T03:01:51;-6.90;99.90
66610;DHT22;53468;48.276;14.416;2022-12-18T03:07:34;-7.20;99.90
66610;DHT22;53468;48.276;14.416;2022-12-18T03:13:10;-7.20;99.90
66610;DHT22;53468;48.276;14.416;2022-12-18T03:18:48;-7.20;99.90
66610;DHT22;53468;48.276;14.416;2022-12-18T03:24:21;-7.00;99.90
66610;DHT22;53468;48.276;14.416;2022-12-18T03:29:59;-6.70;99.90
66610;DHT22;53468;48.276;14.416;2022-12-18T03:35:42;-6.60;99.90
66610;DHT22;53468;48.276;14.416;2022-12-18T03:41:19;-6.70;99.90
66610;DHT22;53468;48.276;14.416;2022-12-18T03:46:59;-6.70;99.90
66610;DHT22;53468;48.276;14.416;2022-12-18T03:52:37;-6.60;99.90
66610;DHT22;53468;48.276;14.416;2022-12-18T03:58:11;-6.40;99.90
66610;DHT22;53468;48.276;14.416;2022-12-18T04:03:46;-6.30;99.90
66610;DHT22;53468;48.276;14.416;2022-12-18T04:09:21;-6.40;99.90
66610;DHT22;53468;48.276;14.416;2022-12-18T04:14:53;-6.40;99.90
66610;DHT22;53468;48.276;14.416;2022-12-18T04:20:25;-6.50;99.90
66610;DHT22;53468;48.276;14.416;2022-12-18T04:25:59;-6.50;99.90
66610;DHT22;53468;48.276;14.416;2022-12-18T04:31:31;-6.80;99.90
66610;DHT22;53468;48.276;14.416;2022-12-18T04:37:03;-6.80;99.90
66610;DHT22;53468;48.276;14.416;2022-12-18T04:42:36;-7.00;99.90
66610;DHT22;53468;48.276;14.416;2022-12-18T04:48:08;-7.00;99.90
66610;DHT22;53468;48.276;14.416;2022-12-18T04:53:40;-7.10;99.90
66610;DHT22;53468;48.276;14.416;2022-12-18T04:59:15;-7.30;99.90
66610;DHT22;53468;48.276;14.416;2022-12-18T05:04:47;-7.60;99.90
66610;DHT22;53468;48.276;14.416;2022-12-18T05:10:19;-7.50;99.90
66610;DHT22;53468;48.276;14.416;2022-12-18T05:15:53;-7.70;99.90
66610;DHT22;53468;48.276;14.416;2022-12-18T05:21:25;-7.90;99.90
66610;DHT22;53468;48.276;14.416;2022-12-18T05:26:57;-7.90;99.90
66610;DHT22;53468;48.276;14.416;2022-12-18T05:32:31;-8.00;99.90
66610;DHT22;53468;48.276;14.416;2022-12-18T05:38:03;-8.10;99.90
66610;DHT22;53468;48.276;14.416;2022-12-18T05:43:36;-8.20;99.90
66610;DHT22;53468;48.276;14.416;2022-12-18T05:49:10;-8.30;99.90
66610;DHT22;53468;48.276;14.416;2022-12-18T05:54:42;-8.10;99.90
66610;DHT22;53468;48.276;14.416;2022-12-18T06:00:15;-8.10;99.90
66610;DHT22;53468;48.276;14.416;2022-12-18T06:05:49;-8.10;99.90
66610;DHT22;53468;48.276;14.416;2022-12-18T06:11:24;-8.10;99.90
66610;DHT22;53468;48.276;14.416;2022-12-18T06:16:57;-8.10;99.90
66610;DHT22;53468;48.276;14.416;2022-12-18T06:22:32;-8.20;99.90
66610;DHT22;53468;48.276;14.416;2022-12-18T06:28:05;-8.20;99.90
66610;DHT22;53468;48.276;14.416;2022-12-18T06:33:38;-8.10;99.90
66610;DHT22;53468;48.276;14.416;2022-12-18T06:39:11;-8.10;99.90
66610;DHT22;53468;48.276;14.416;2022-12-18T06:44:43;-8.20;99.90
66610;DHT22;53468;48.276;14.416;2022-12-18T06:50:15;-8.30;99.90
66610;DHT22;53468;48.276;14.416;2022-12-18T06:55:50;-8.30;99.90
66610;DHT22;53468;48.276;14.416;2022-12-18T07:01:22;-8.40;99.90
66610;DHT22;53468;48.276;14.416;2022-12-18T07:06:54;-8.40;99.90
66610;DHT22;53468;48.276;14.416;2022-12-18T07:12:28;-8.30;99.90
66610;DHT22;53468;48.276;14.416;2022-12-18T07:18:00;-8.40;99.90
66610;DHT22;53468;48.276;14.416;2022-12-18T07:23:33;-8.50;99.90
66610;DHT22;53468;48.276;14.416;2022-12-18T07:29:06;-8.50;99.90
66610;DHT22;53468;48.276;14.416;2022-12-18T07:34:38;-8.40;99.90
66610;DHT22;53468;48.276;14.416;2022-12-18T07:40:11;-8.30;99.90
66610;DHT22;53468;48.276;14.416;2022-12-18T07:45:48;-8.20;99.90
66610;DHT22;53468;48.276;14.416;2022-12-18T07:51:22;-8.30;99.90
66610;DHT22;53468;48.276;14.416;2022-12-18T07:56:54;-8.20;99.90
66610;DHT22;53468;48.276;14.416;2022-12-18T08:02:30;-8.10;99.90
66610;DHT22;53468;48.276;14.416;2022-12-18T08:08:02;-8.00;99.90
66610;DHT22;53468;48.276;14.416;2022-12-18T08:13:34;-7.80;99.90
66610;DHT22;53468;48.276;14.416;2022-12-18T08:19:08;-7.60;99.90
66610;DHT22;53468;48.276;14.416;2022-12-18T08:24:40;-7.40;99.90
66610;DHT22;53468;48.276;14.416;2022-12-18T08:30:13;-7.30;99.90
66610;DHT22;53468;48.276;14.416;2022-12-18T08:35:48;-7.20;99.90
66610;DHT22;53468;48.276;14.416;2022-12-18T08:41:23;-7.00;99.90
66610;DHT22;53468;48.276;14.416;2022-12-18T08:46:55;-7.00;99.90
66610;DHT22;53468;48.276;14.416;2022-12-18T08:52:28;-6.60;99.90
66610;DHT22;53468;48.276;14.416;2022-12-18T08:58:02;-6.40;99.90
66610;DHT22;53468;48.276;14.416;2022-12-18T09:03:35;-6.10;99.90
66610;DHT22;53468;48.276;14.416;2022-12-18T09:09:09;-5.90;99.90
66610;DHT22;53468;48.276;14.416;2022-12-18T09:14:42;-5.40;99.90
66610;DHT22;53468;48.276;14.416;2022-12-18T09:20:14;-4.80;99.90
66610;DHT22;53468;48.276;14.416;2022-12-18T09:25:48;-4.30;99.90
66610;DHT22;53468;48.276;14.416;2022-12-18T09:31:22;-3.80;99.90
66610;DHT22;53468;48.276;14.416;2022-12-18T09:36:54;-3.60;99.90
66610;DHT22;53468;48.276;14.416;2022-12-18T09:42:28;-3.30;99.90
66610;DHT22;53468;48.276;14.416;2022-12-18T09:48:00;-3.10;99.90
66610;DHT22;53468;48.276;14.416;2022-12-18T09:53:35;-3.00;99.90
66610;DHT22;53468;48.276;14.416;2022-12-18T09:59:21;-2.70;99.90
66610;DHT22;53468;48.276;14.416;2022-12-18T10:05:05;-2.50;99.90
66610;DHT22;53468;48.276;14.416;2022-12-18T10:10:41;-2.60;99.90
66610;DHT22;53468;48.276;14.416;2022-12-18T10:16:21;-2.70;99.90
66610;DHT22;53468;48.276;14.416;2022-12-18T10:22:01;-2.70;99.90
66610;DHT22;53468;48.276;14.416;2022-12-18T10:27:36;-2.70;99.90
66610;DHT22;53468;48.276;14.416;2022-12-18T10:33:11;-2.70;99.90
66610;DHT22;53468;48.276;14.416;2022-12-18T10:38:45;-2.70;99.90
66610;DHT22;53468;48.276;14.416;2022-12-18T10:44:19;-2.70;99.90
66610;DHT22;53468;48.276;14.416;2022-12-18T10:49:54;-2.70;99.90
66610;DHT22;53468;48.276;14.416;2022-12-18T10:55:33;-2.60;99.90
66610;DHT22;53468;48.276;14.416;2022-12-18T11:01:09;-2.80;99.90
66610;DHT22;53468;48.276;14.416;2022-12-18T11:06:56;-2.80;99.90
66610;DHT22;53468;48.276;14.416;2022-12-18T11:12:29;-2.70;99.90
66610;DHT22;53468;48.276;14.416;2022-12-18T11:18:01;-2.60;99.90
66610;DHT22;53468;48.276;14.416;2022-12-18T11:23:36;-2.70;99.90
66610;DHT22;53468;48.276;14.416;2022-12-18T11:29:30;-2.60;99.90
66610;DHT22;53468;48.276;14.416;2022-12-18T11:35:11;-2.50;99.90
66610;DHT22;53468;48.276;14.416;2022-12-18T11:40:51;-2.50;99.90
66610;DHT22;53468;48.276;14.416;2022-12-18T11:46:29;-2.30;99.90
66610;DHT22;53468;48.276;14.416;2022-12-18T11:52:14;-2.20;99.90
66610;DHT22;53468;48.276;14.416;2022-12-18T11:57:57;-2.30;99.90
66610;DHT22;53468;48.276;14.416;2022-12-18T12:04:04;-2.10;99.90
66610;DHT22;53468;48.276;14.416;2022-12-18T12:09:40;-2.10;99.90
66610;DHT22;53468;48.276;14.416;2022-12-18T12:15:24;-2.20;99.90
66610;DHT22;53468;48.276;14.416;2022-12-18T12:21:03;-2.10;99.90
66610;DHT22;53468;48.276;14.416;2022-12-18T12:26:43;-2.10;99.90
66610;DHT22;53468;48.276;14.416;2022-12-18T12:32:30;-2.10;99.90
66610;DHT22;53468;48.276;14.416;2022-12-18T12:38:09;-2.00;99.90
66610;DHT22;53468;48.276;14.416;2022-12-18T12:43:44;-2.00;99.90
66610;DHT22;53468;48.276;14.416;2022-12-18T12:49:26;-2.00;99.90
66610;DHT22;53468;48.276;14.416;2022-12-18T12:55:00;-1.90;99.90
66610;DHT22;53468;48.276;14.416;2022-12-18T13:00:40;-2.00;99.90
66610;DHT22;53468;48.276;14.416;2022-12-18T13:06:30;-2.00;99.90
66610;DHT22;53468;48.276;14.416;2022-12-18T13:12:11;-2.00;99.90
66610;DHT22;53468;48.276;14.416;2022-12-18T13:18:19;-2.00;99.90
66610;DHT22;53468;48.276;14.416;2022-12-18T13:23:53;-2.00;99.90
66610;DHT22;53468;48.276;14.416;2022-12-18T13:29:42;-2.00;99.90
66610;DHT22;53468;48.276;14.416;2022-12-18T13:35:37;-2.20;99.90
66610;DHT22;53468;48.276;14.416;2022-12-18T13:41:29;-2.30;99.90
66610;DHT22;53468;48.276;14.416;2022-12-18T13:47:03;-2.40;99.90
66610;DHT22;53468;48.276;14.416;2022-12-18T13:52:39;-2.50;99.90
66610;DHT22;53468;48.276;14.416;2022-12-18T13:58:13;-2.60;99.90
66610;DHT22;53468;48.276;14.416;2022-12-18T14:03:45;-2.60;99.90
66610;DHT22;53468;48.276;14.416;2022-12-18T14:09:25;-2.50;99.90
66610;DHT22;53468;48.276;14.416;2022-12-18T14:14:59;-2.50;99.90
66610;DHT22;53468;48.276;14.416;2022-12-18T14:20:32;-2.40;99.90
66610;DHT22;53468;48.276;14.416;2022-12-18T14:26:22;-2.40;99.90
66610;DHT22;53468;48.276;14.416;2022-12-18T14:32:11;-2.40;99.90
66610;DHT22;53468;48.276;14.416;2022-12-18T14:37:44;-2.40;99.90
66610;DHT22;53468;48.276;14.416;2022-12-18T14:43:16;-2.40;99.90
66610;DHT22;53468;48.276;14.416;2022-12-18T14:48:50;-2.40;99.90
66610;DHT22;53468;48.276;14.416;2022-12-18T14:54:23;-2.40;99.90
66610;DHT22;53468;48.276;14.416;2022-12-18T15:00:04;-2.40;99.90
66610;DHT22;53468;48.276;14.416;2022-12-18T15:05:38;-2.40;99.90
66610;DHT22;53468;48.276;14.416;2022-12-18T15:11:26;-2.40;99.90
66610;DHT22;53468;48.276;14.416;2022-12-18T15:16:59;-2.50;99.90
66610;DHT22;53468;48.276;14.416;2022-12-18T15:22:35;-2.50;99.90
66610;DHT22;53468;48.276;14.416;2022-12-18T15:28:17;-2.60;99.90
66610;DHT22;53468;48.276;14.416;2022-12-18T15:34:12;-2.60;99.90
66610;DHT22;53468;48.276;14.416;2022-12-18T15:39:45;-2.70;99.90
66610;DHT22;53468;48.276;14.416;2022-12-18T15:45:18;-2.80;99.90
66610;DHT22;53468;48.276;14.416;2022-12-18T15:50:51;-2.80;99.90
66610;DHT22;53468;48.276;14.416;2022-12-18T15:56:25;-2.80;99.90
66610;DHT22;53468;48.276;14.416;2022-12-18T16:02:17;-2.80;99.90
66610;DHT22;53468;48.276;14.416;2022-12-18T16:07:49;-2.80;99.90
66610;DHT22;53468;48.276;14.416;2022-12-18T16:13:22;-2.80;99.90
66610;DHT22;53468;48.276;14.416;2022-12-18T16:18:54;-2.80;99.90
66610;DHT22;53468;48.276;14.416;2022-12-18T16:24:28;-2.80;99.90
66610;DHT22;53468;48.276;14.416;2022-12-18T16:30:03;-2.80;99.90
66610;DHT22;53468;48.276;14.416;2022-12-18T16:35:35;-2.80;99.90
66610;DHT22;53468;48.276;14.416;2022-12-18T16:41:17;-2.80;99.90
66610;DHT22;53468;48.276;14.416;2022-12-18T16:47:08;-2.90;99.90
66610;DHT22;53468;48.276;14.416;2022-12-18T16:52:40;-2.80;99.90
66610;DHT22;53468;48.276;14.416;2022-12-18T16:58:12;-2.90;99.90
66610;DHT22;53468;48.276;14.416;2022-12-18T17:03:50;-2.90;99.90
66610;DHT22;53468;48.276;14.416;2022-12-18T17:09:22;-3.00;99.90
66610;DHT22;53468;48.276;14.416;2022-12-18T17:14:56;-2.80;99.90
66610;DHT22;53468;48.276;14.416;2022-12-18T17:20:30;-3.00;99.90
66610;DHT22;53468;48.276;14.416;2022-12-18T17:26:04;-3.00;99.90
66610;DHT22;53468;48.276;14.416;2022-12-18T17:31:37;-3.00;99.90
66610;DHT22;53468;48.276;14.416;2022-12-18T17:37:11;-2.90;99.90
66610;DHT22;53468;48.276;14.416;2022-12-18T17:42:43;-3.00;99.90
66610;DHT22;53468;48.276;14.416;2022-12-18T17:48:15;-3.00;99.90
66610;DHT22;53468;48.276;14.416;2022-12-18T17:53:49;-3.00;99.90
66610;DHT22;53468;48.276;14.416;2022-12-18T17:59:22;-2.90;99.90
66610;DHT22;53468;48.276;14.416;2022-12-18T18:04:54;-2.90;99.90
66610;DHT22;53468;48.276;14.416;2022-12-18T18:10:28;-2.90;99.90
66610;DHT22;53468;48.276;14.416;2022-12-18T18:16:00;-2.90;99.90
66610;DHT22;53468;48.276;14.416;2022-12-18T18:21:33;-2.90;99.90
66610;DHT22;53468;48.276;14.416;2022-12-18T18:27:07;-2.90;99.90
66610;DHT22;53468;48.276;14.416;2022-12-18T18:32:39;-2.90;99.90
66610;DHT22;53468;48.276;14.416;2022-12-18T18:38:11;-2.90;99.90
66610;DHT22;53468;48.276;14.416;2022-12-18T18:43:46;-2.90;99.90
66610;DHT22;53468;48.276;14.416;2022-12-18T18:49:18;-2.90;99.90
66610;DHT22;53468;48.276;14.416;2022-12-18T18:54:50;-3.00;99.90
66610;DHT22;53468;48.276;14.416;2022-12-18T19:00:24;-2.90;99.90
66610;DHT22;53468;48.276;14.416;2022-12-18T19:05:58;-2.90;99.90
66610;DHT22;53468;48.276;14.416;2022-12-18T19:11:32;-2.90;99.90
66610;DHT22;53468;48.276;14.416;2022-12-18T19:17:23;-2.80;99.90
66610;DHT22;53468;48.276;14.416;2022-12-18T19:22:55;-2.80;99.90
66610;DHT22;53468;48.276;14.416;2022-12-18T19:28:27;-2.80;99.90
66610;DHT22;53468;48.276;14.416;2022-12-18T19:34:02;-2.80;99.90
66610;DHT22;53468;48.276;14.416;2022-12-18T19:39:34;-2.80;99.90
66610;DHT22;53468;48.276;14.416;2022-12-18T19:45:07;-2.80;99.90
66610;DHT22;53468;48.276;14.416;2022-12-18T19:50:41;-2.80;99.90
66610;DHT22;53468;48.276;14.416;2022-12-18T19:56:15;-2.80;99.90
66610;DHT22;53468;48.276;14.416;2022-12-18T20:01:47;-2.70;99.90
66610;DHT22;53468;48.276;14.416;2022-12-18T20:07:21;-2.70;99.90
66610;DHT22;53468;48.276;14.416;2022-12-18T20:12:53;-2.70;99.90
66610;DHT22;53468;48.276;14.416;2022-12-18T20:18:26;-2.70;99.90
66610;DHT22;53468;48.276;14.416;2022-12-18T20:23:59;-2.70;99.90
66610;DHT22;53468;48.276;14.416;2022-12-18T20:29:32;-2.80;99.90
66610;DHT22;53468;48.276;14.416;2022-12-18T20:35:04;-2.70;99.90
66610;DHT22;53468;48.276;14.416;2022-12-18T20:40:40;-2.80;99.90
66610;DHT22;53468;48.276;14.416;2022-12-18T20:46:14;-2.90;99.90
66610;DHT22;53468;48.276;14.416;2022-12-18T20:51:49;-2.90;99.90
66610;DHT22;53468;48.276;14.416;2022-12-18T20:57:23;-2.90;99.90
66610;DHT22;53468;48.276;14.416;2022-12-18T21:02:55;-2.90;99.90
66610;DHT22;53468;48.276;14.416;2022-12-18T21:08:27;-3.00;99.90
66610;DHT22;53468;48.276;14.416;2022-12-18T21:14:02;-3.00;99.90
66610;DHT22;53468;48.276;14.416;2022-12-18T21:19:35;-3.10;99.90
66610;DHT22;53468;48.276;14.416;2022-12-18T21:25:07;-3.10;99.90
66610;DHT22;53468;48.276;14.416;2022-12-18T21:30:41;-3.10;99.90
66610;DHT22;53468;48.276;14.416;2022-12-18T21:36:14;-3.20;99.90
66610;DHT22;53468;48.276;14.416;2022-12-18T21:41:46;-3.30;99.90
66610;DHT22;53468;48.276;14.416;2022-12-18T21:47:37;-3.30;99.90
66610;DHT22;53468;48.276;14.416;2022-12-18T21:53:09;-3.40;99.90
66610;DHT22;53468;48.276;14.416;2022-12-18T21:58:41;-3.40;99.90
66610;DHT22;53468;48.276;14.416;2022-12-18T22:04:16;-3.40;99.90
66610;DHT22;53468;48.276;14.416;2022-12-18T22:09:48;-3.50;99.90
66610;DHT22;53468;48.276;14.416;2022-12-18T22:15:20;-3.60;99.90
66610;DHT22;53468;48.276;14.416;2022-12-18T22:21:01;-3.70;99.90
66610;DHT22;53468;48.276;14.416;2022-12-18T22:26:34;-3.70;99.90
66610;DHT22;53468;48.276;14.416;2022-12-18T22:32:08;-3.90;99.90
66610;DHT22;53468;48.276;14.416;2022-12-18T22:37:42;-4.10;99.90
66610;DHT22;53468;48.276;14.416;2022-12-18T22:43:14;-4.10;99.90
66610;DHT22;53468;48.276;14.416;2022-12-18T22:48:46;-4.20;99.90
66610;DHT22;53468;48.276;14.416;2022-12-18T22:54:20;-4.20;99.90
66610;DHT22;53468;48.276;14.416;2022-12-18T22:59:53;-4.30;99.90
66610;DHT22;53468;48.276;14.416;2022-12-18T23:05:25;-4.30;99.90
66610;DHT22;53468;48.276;14.416;2022-12-18T23:10:59;-4.30;99.90
66610;DHT22;53468;48.276;14.416;2022-12-18T23:16:31;-4.40;99.90
66610;DHT22;53468;48.276;14.416;2022-12-18T23:22:04;-4.40;99.90
66610;DHT22;53468;48.276;14.416;2022-12-18T23:27:38;-4.50;99.90
66610;DHT22;53468;48.276;14.416;2022-12-18T23:33:10;-4.50;99.90
66610;DHT22;53468;48.276;14.416;2022-12-18T23:38:46;-4.50;99.90
66610;DHT22;53468;48.276;14.416;2022-12-18T23:44:20;-4.60;99.90
66610;DHT22;53468;48.276;14.416;2022-12-18T23:49:52;-4.60;99.90
66610;DHT22;53468;48.276;14.416;2022-12-18T23:55:24;-4.70;99.90
